sensor_id;sensor_type;location;lat;lon;timestamp;P1;durP1;ratioP1;P2;durP2;ratioP2
80567;SDS011;69922;45.656;25.586;2023-08-20T00:00:33;9.50;;;8.00;;
80567;SDS011;69922;45.656;25.586;2023-08-20T00:01:57;10.00;;;7.60;;
80567;SDS011;69922;45.656;25.586;2023-08-20T00:03:06;11.40;;;7.80;;
80567;SDS011;69922;45.656;25.586;2023-08-20T00:04:14;9.50;;;7.90;;
80567;SDS011;69922;45.656;25.586;2023-08-20T00:05:19;11.20;;;8.30;;
80567;SDS011;69922;45.656;25.586;2023-08-20T00:06:27;9.30;;;8.10;;
80567;SDS011;69922;45.656;25.586;2023-08-20T00:07:33;9.10;;;7.40;;
80567;SDS011;69922;45.656;25.586;2023-08-20T00:08:38;9.10;;;7.30;;
80567;SDS011;69922;45.656;25.586;2023-08-20T00:09:42;8.50;;;6.90;;
80567;SDS011;69922;45.656;25.586;2023-08-20T00:10:45;8.70;;;6.90;;
80567;SDS011;69922;45.656;25.586;2023-08-20T00:11:49;7.90;;;7.10;;
80567;SDS011;69922;45.656;25.586;2023-08-20T00:12:52;8.00;;;7.10;;
80567;SDS011;69922;45.656;25.586;2023-08-20T00:13:56;12.20;;;7.40;;
80567;SDS011;69922;45.656;25.586;2023-08-20T00:15:00;8.90;;;7.40;;
80567;SDS011;69922;45.656;25.586;2023-08-20T00:16:09;12.50;;;8.10;;
80567;SDS011;69922;45.656;25.586;2023-08-20T00:17:15;10.50;;;8.40;;
80567;SDS011;69922;45.656;25.586;2023-08-20T00:18:22;10.50;;;8.10;;
80567;SDS011;69922;45.656;25.586;2023-08-20T00:19:29;10.50;;;8.60;;
80567;SDS011;69922;45.656;25.586;2023-08-20T00:20:35;11.30;;;8.60;;
80567;SDS011;69922;45.656;25.586;2023-08-20T00:21:40;9.70;;;8.60;;
80567;SDS011;69922;45.656;25.586;2023-08-20T00:22:47;11.60;;;8.30;;
80567;SDS011;69922;45.656;25.586;2023-08-20T00:23:52;10.80;;;8.60;;
80567;SDS011;69922;45.656;25.586;2023-08-20T00:24:58;11.70;;;8.50;;
80567;SDS011;69922;45.656;25.586;2023-08-20T00:26:02;11.40;;;8.60;;
80567;SDS011;69922;45.656;25.586;2023-08-20T00:27:07;11.40;;;8.80;;
80567;SDS011;69922;45.656;25.586;2023-08-20T00:28:11;10.10;;;8.80;;
80567;SDS011;69922;45.656;25.586;2023-08-20T00:29:14;17.20;;;9.60;;
80567;SDS011;69922;45.656;25.586;2023-08-20T00:30:17;13.00;;;8.10;;
80567;SDS011;69922;45.656;25.586;2023-08-20T00:31:21;10.70;;;8.30;;
80567;SDS011;69922;45.656;25.586;2023-08-20T00:32:24;11.00;;;9.00;;
80567;SDS011;69922;45.656;25.586;2023-08-20T00:33:28;12.00;;;9.10;;
80567;SDS011;69922;45.656;25.586;2023-08-20T00:34:31;12.90;;;8.50;;
80567;SDS011;69922;45.656;25.586;2023-08-20T00:35:35;8.70;;;7.30;;
80567;SDS011;69922;45.656;25.586;2023-08-20T00:36:38;9.50;;;7.90;;
80567;SDS011;69922;45.656;25.586;2023-08-20T00:37:42;10.80;;;8.10;;
80567;SDS011;69922;45.656;25.586;2023-08-20T00:38:47;10.10;;;7.50;;
80567;SDS011;69922;45.656;25.586;2023-08-20T00:39:50;10.00;;;7.50;;
80567;SDS011;69922;45.656;25.586;2023-08-20T00:40:54;9.80;;;6.70;;
80567;SDS011;69922;45.656;25.586;2023-08-20T00:41:57;8.50;;;7.10;;
80567;SDS011;69922;45.656;25.586;2023-08-20T00:43:01;10.10;;;8.00;;
80567;SDS011;69922;45.656;25.586;2023-08-20T00:44:04;11.10;;;7.70;;
80567;SDS011;69922;45.656;25.586;2023-08-20T00:45:09;12.20;;;8.20;;
80567;SDS011;69922;45.656;25.586;2023-08-20T00:46:12;8.40;;;7.60;;
80567;SDS011;69922;45.656;25.586;2023-08-20T00:47:17;9.20;;;7.10;;
80567;SDS011;69922;45.656;25.586;2023-08-20T00:48:22;10.60;;;8.10;;
80567;SDS011;69922;45.656;25.586;2023-08-20T00:49:26;9.90;;;8.00;;
80567;SDS011;69922;45.656;25.586;2023-08-20T00:50:30;12.10;;;8.10;;
80567;SDS011;69922;45.656;25.586;2023-08-20T00:51:35;9.00;;;7.90;;
80567;SDS011;69922;45.656;25.586;2023-08-20T00:52:39;8.40;;;7.50;;
80567;SDS011;69922;45.656;25.586;2023-08-20T00:53:43;9.70;;;7.10;;
80567;SDS011;69922;45.656;25.586;2023-08-20T00:54:47;10.30;;;7.30;;
80567;SDS011;69922;45.656;25.586;2023-08-20T00:55:51;10.60;;;7.50;;
80567;SDS011;69922;45.656;25.586;2023-08-20T00:56:55;9.10;;;7.20;;
80567;SDS011;69922;45.656;25.586;2023-08-20T00:58:00;9.00;;;7.30;;
80567;SDS011;69922;45.656;25.586;2023-08-20T00:59:04;9.90;;;7.00;;
80567;SDS011;69922;45.656;25.586;2023-08-20T01:00:09;8.30;;;7.20;;
80567;SDS011;69922;45.656;25.586;2023-08-20T01:01:14;11.30;;;7.10;;
80567;SDS011;69922;45.656;25.586;2023-08-20T01:02:18;9.40;;;7.60;;
80567;SDS011;69922;45.656;25.586;2023-08-20T01:03:22;8.90;;;8.00;;
80567;SDS011;69922;45.656;25.586;2023-08-20T01:04:25;11.00;;;7.40;;
80567;SDS011;69922;45.656;25.586;2023-08-20T01:05:32;12.80;;;8.20;;
80567;SDS011;69922;45.656;25.586;2023-08-20T01:06:44;9.90;;;7.60;;
80567;SDS011;69922;45.656;25.586;2023-08-20T01:07:57;9.00;;;7.40;;
80567;SDS011;69922;45.656;25.586;2023-08-20T01:09:09;8.40;;;7.00;;
80567;SDS011;69922;45.656;25.586;2023-08-20T01:10:23;7.70;;;6.70;;
80567;SDS011;69922;45.656;25.586;2023-08-20T01:11:33;9.40;;;7.10;;
80567;SDS011;69922;45.656;25.586;2023-08-20T01:12:44;7.30;;;6.40;;
80567;SDS011;69922;45.656;25.586;2023-08-20T01:13:50;11.30;;;6.90;;
80567;SDS011;69922;45.656;25.586;2023-08-20T01:14:56;9.30;;;6.60;;
80567;SDS011;69922;45.656;25.586;2023-08-20T01:16:00;8.50;;;6.80;;
80567;SDS011;69922;45.656;25.586;2023-08-20T01:17:03;10.30;;;7.10;;
80567;SDS011;69922;45.656;25.586;2023-08-20T01:18:08;7.60;;;6.80;;
80567;SDS011;69922;45.656;25.586;2023-08-20T01:19:12;11.00;;;7.10;;
80567;SDS011;69922;45.656;25.586;2023-08-20T01:20:20;8.20;;;6.60;;
80567;SDS011;69922;45.656;25.586;2023-08-20T01:21:35;8.90;;;6.80;;
80567;SDS011;69922;45.656;25.586;2023-08-20T01:22:52;9.00;;;7.30;;
80567;SDS011;69922;45.656;25.586;2023-08-20T01:24:17;12.10;;;7.60;;
80567;SDS011;69922;45.656;25.586;2023-08-20T01:25:46;8.10;;;6.70;;
80567;SDS011;69922;45.656;25.586;2023-08-20T01:27:10;9.40;;;7.10;;
80567;SDS011;69922;45.656;25.586;2023-08-20T01:28:39;8.70;;;6.70;;
80567;SDS011;69922;45.656;25.586;2023-08-20T01:29:43;8.80;;;6.50;;
80567;SDS011;69922;45.656;25.586;2023-08-20T01:30:47;11.00;;;7.50;;
80567;SDS011;69922;45.656;25.586;2023-08-20T01:31:51;9.20;;;7.90;;
80567;SDS011;69922;45.656;25.586;2023-08-20T01:32:57;10.30;;;7.40;;
80567;SDS011;69922;45.656;25.586;2023-08-20T01:34:02;11.00;;;7.80;;
80567;SDS011;69922;45.656;25.586;2023-08-20T01:35:07;8.10;;;6.90;;
80567;SDS011;69922;45.656;25.586;2023-08-20T01:36:17;9.70;;;7.80;;
80567;SDS011;69922;45.656;25.586;2023-08-20T01:37:21;9.10;;;7.80;;
80567;SDS011;69922;45.656;25.586;2023-08-20T01:38:25;9.30;;;6.90;;
80567;SDS011;69922;45.656;25.586;2023-08-20T01:39:29;9.00;;;7.40;;
80567;SDS011;69922;45.656;25.586;2023-08-20T01:40:32;11.10;;;8.20;;
80567;SDS011;69922;45.656;25.586;2023-08-20T01:41:36;12.20;;;8.40;;
80567;SDS011;69922;45.656;25.586;2023-08-20T01:42:39;10.10;;;7.70;;
80567;SDS011;69922;45.656;25.586;2023-08-20T01:43:44;11.00;;;7.20;;
80567;SDS011;69922;45.656;25.586;2023-08-20T01:44:47;11.70;;;8.00;;
80567;SDS011;69922;45.656;25.586;2023-08-20T01:45:50;9.70;;;7.40;;
80567;SDS011;69922;45.656;25.586;2023-08-20T01:46:54;11.10;;;8.20;;
80567;SDS011;69922;45.656;25.586;2023-08-20T01:47:58;11.30;;;8.00;;
80567;SDS011;69922;45.656;25.586;2023-08-20T01:49:02;10.30;;;7.90;;
80567;SDS011;69922;45.656;25.586;2023-08-20T01:50:09;9.90;;;8.20;;
80567;SDS011;69922;45.656;25.586;2023-08-20T01:51:14;13.20;;;8.60;;
80567;SDS011;69922;45.656;25.586;2023-08-20T01:52:17;10.40;;;8.50;;
80567;SDS011;69922;45.656;25.586;2023-08-20T01:53:21;10.10;;;8.20;;
80567;SDS011;69922;45.656;25.586;2023-08-20T01:54:24;10.30;;;8.00;;
80567;SDS011;69922;45.656;25.586;2023-08-20T01:55:29;11.60;;;7.90;;
80567;SDS011;69922;45.656;25.586;2023-08-20T01:56:35;10.70;;;8.70;;
80567;SDS011;69922;45.656;25.586;2023-08-20T01:57:39;9.90;;;7.90;;
80567;SDS011;69922;45.656;25.586;2023-08-20T01:58:42;10.50;;;8.20;;
80567;SDS011;69922;45.656;25.586;2023-08-20T01:59:46;9.70;;;8.70;;
80567;SDS011;69922;45.656;25.586;2023-08-20T02:00:50;10.00;;;8.00;;
80567;SDS011;69922;45.656;25.586;2023-08-20T02:01:55;12.80;;;9.20;;
80567;SDS011;69922;45.656;25.586;2023-08-20T02:02:58;10.50;;;8.70;;
80567;SDS011;69922;45.656;25.586;2023-08-20T02:04:02;11.70;;;9.30;;
80567;SDS011;69922;45.656;25.586;2023-08-20T02:05:08;10.80;;;8.50;;
80567;SDS011;69922;45.656;25.586;2023-08-20T02:06:13;13.20;;;9.20;;
80567;SDS011;69922;45.656;25.586;2023-08-20T02:07:17;12.40;;;9.10;;
80567;SDS011;69922;45.656;25.586;2023-08-20T02:08:20;10.70;;;8.20;;
80567;SDS011;69922;45.656;25.586;2023-08-20T02:09:24;12.60;;;9.00;;
80567;SDS011;69922;45.656;25.586;2023-08-20T02:10:28;10.60;;;8.80;;
80567;SDS011;69922;45.656;25.586;2023-08-20T02:11:31;9.30;;;7.30;;
80567;SDS011;69922;45.656;25.586;2023-08-20T02:12:38;14.40;;;8.80;;
80567;SDS011;69922;45.656;25.586;2023-08-20T02:13:42;11.60;;;8.30;;
80567;SDS011;69922;45.656;25.586;2023-08-20T02:14:46;11.50;;;8.90;;
80567;SDS011;69922;45.656;25.586;2023-08-20T02:15:57;10.10;;;8.10;;
80567;SDS011;69922;45.656;25.586;2023-08-20T02:17:01;10.80;;;7.50;;
80567;SDS011;69922;45.656;25.586;2023-08-20T02:18:06;10.60;;;8.50;;
80567;SDS011;69922;45.656;25.586;2023-08-20T02:19:09;10.80;;;8.80;;
80567;SDS011;69922;45.656;25.586;2023-08-20T02:20:13;11.10;;;8.40;;
80567;SDS011;69922;45.656;25.586;2023-08-20T02:21:17;12.10;;;8.40;;
80567;SDS011;69922;45.656;25.586;2023-08-20T02:22:20;10.90;;;9.10;;
80567;SDS011;69922;45.656;25.586;2023-08-20T02:23:24;12.70;;;8.70;;
80567;SDS011;69922;45.656;25.586;2023-08-20T02:24:28;9.80;;;7.70;;
80567;SDS011;69922;45.656;25.586;2023-08-20T02:25:31;10.70;;;8.80;;
80567;SDS011;69922;45.656;25.586;2023-08-20T02:26:36;12.00;;;8.20;;
80567;SDS011;69922;45.656;25.586;2023-08-20T02:27:40;10.10;;;8.40;;
80567;SDS011;69922;45.656;25.586;2023-08-20T02:28:43;11.60;;;8.60;;
80567;SDS011;69922;45.656;25.586;2023-08-20T02:29:47;12.40;;;9.00;;
80567;SDS011;69922;45.656;25.586;2023-08-20T02:30:50;12.40;;;8.10;;
80567;SDS011;69922;45.656;25.586;2023-08-20T02:31:54;14.10;;;8.50;;
80567;SDS011;69922;45.656;25.586;2023-08-20T02:32:57;11.70;;;8.10;;
80567;SDS011;69922;45.656;25.586;2023-08-20T02:34:00;13.00;;;8.30;;
80567;SDS011;69922;45.656;25.586;2023-08-20T02:35:05;11.20;;;9.30;;
80567;SDS011;69922;45.656;25.586;2023-08-20T02:36:09;10.30;;;9.20;;
80567;SDS011;69922;45.656;25.586;2023-08-20T02:37:13;10.40;;;8.60;;
80567;SDS011;69922;45.656;25.586;2023-08-20T02:38:17;11.30;;;8.30;;
80567;SDS011;69922;45.656;25.586;2023-08-20T02:39:20;11.70;;;8.80;;
80567;SDS011;69922;45.656;25.586;2023-08-20T02:40:26;14.30;;;8.50;;
80567;SDS011;69922;45.656;25.586;2023-08-20T02:41:29;12.20;;;8.40;;
80567;SDS011;69922;45.656;25.586;2023-08-20T02:42:33;9.30;;;7.90;;
80567;SDS011;69922;45.656;25.586;2023-08-20T02:43:37;11.50;;;8.50;;
80567;SDS011;69922;45.656;25.586;2023-08-20T02:44:40;11.10;;;8.40;;
80567;SDS011;69922;45.656;25.586;2023-08-20T02:45:43;9.70;;;8.50;;
80567;SDS011;69922;45.656;25.586;2023-08-20T02:46:47;12.50;;;8.80;;
80567;SDS011;69922;45.656;25.586;2023-08-20T02:47:51;11.50;;;8.70;;
80567;SDS011;69922;45.656;25.586;2023-08-20T02:48:55;11.10;;;9.00;;
80567;SDS011;69922;45.656;25.586;2023-08-20T02:49:58;13.30;;;8.80;;
80567;SDS011;69922;45.656;25.586;2023-08-20T02:51:02;13.10;;;9.20;;
80567;SDS011;69922;45.656;25.586;2023-08-20T02:52:05;10.80;;;8.60;;
80567;SDS011;69922;45.656;25.586;2023-08-20T02:53:09;13.10;;;9.50;;
80567;SDS011;69922;45.656;25.586;2023-08-20T02:54:12;11.50;;;9.60;;
80567;SDS011;69922;45.656;25.586;2023-08-20T02:55:16;12.20;;;8.60;;
80567;SDS011;69922;45.656;25.586;2023-08-20T02:56:19;11.40;;;9.00;;
80567;SDS011;69922;45.656;25.586;2023-08-20T02:57:22;13.70;;;8.80;;
80567;SDS011;69922;45.656;25.586;2023-08-20T02:58:26;10.90;;;8.80;;
80567;SDS011;69922;45.656;25.586;2023-08-20T02:59:29;10.40;;;8.00;;
80567;SDS011;69922;45.656;25.586;2023-08-20T03:00:32;12.60;;;9.60;;
80567;SDS011;69922;45.656;25.586;2023-08-20T03:01:36;13.80;;;8.70;;
80567;SDS011;69922;45.656;25.586;2023-08-20T03:02:40;11.90;;;10.20;;
80567;SDS011;69922;45.656;25.586;2023-08-20T03:03:44;12.40;;;8.40;;
80567;SDS011;69922;45.656;25.586;2023-08-20T03:04:48;10.70;;;9.60;;
80567;SDS011;69922;45.656;25.586;2023-08-20T03:05:51;12.40;;;10.20;;
80567;SDS011;69922;45.656;25.586;2023-08-20T03:06:56;13.20;;;9.20;;
80567;SDS011;69922;45.656;25.586;2023-08-20T03:08:00;10.40;;;9.20;;
80567;SDS011;69922;45.656;25.586;2023-08-20T03:09:06;14.10;;;9.40;;
80567;SDS011;69922;45.656;25.586;2023-08-20T03:10:10;11.30;;;9.00;;
80567;SDS011;69922;45.656;25.586;2023-08-20T03:11:14;13.20;;;8.20;;
80567;SDS011;69922;45.656;25.586;2023-08-20T03:12:19;11.70;;;8.50;;
80567;SDS011;69922;45.656;25.586;2023-08-20T03:13:22;10.30;;;9.10;;
80567;SDS011;69922;45.656;25.586;2023-08-20T03:14:25;10.70;;;9.10;;
80567;SDS011;69922;45.656;25.586;2023-08-20T03:15:31;11.00;;;8.80;;
80567;SDS011;69922;45.656;25.586;2023-08-20T03:16:34;12.30;;;9.30;;
80567;SDS011;69922;45.656;25.586;2023-08-20T03:17:38;10.70;;;8.80;;
80567;SDS011;69922;45.656;25.586;2023-08-20T03:18:41;10.60;;;8.70;;
80567;SDS011;69922;45.656;25.586;2023-08-20T03:19:54;12.40;;;9.70;;
80567;SDS011;69922;45.656;25.586;2023-08-20T03:21:00;13.40;;;9.80;;
80567;SDS011;69922;45.656;25.586;2023-08-20T03:22:03;12.50;;;9.50;;
80567;SDS011;69922;45.656;25.586;2023-08-20T03:23:07;13.40;;;9.20;;
80567;SDS011;69922;45.656;25.586;2023-08-20T03:24:10;10.90;;;9.10;;
80567;SDS011;69922;45.656;25.586;2023-08-20T03:25:13;10.30;;;9.00;;
80567;SDS011;69922;45.656;25.586;2023-08-20T03:26:17;12.60;;;8.60;;
80567;SDS011;69922;45.656;25.586;2023-08-20T03:27:20;10.20;;;8.00;;
80567;SDS011;69922;45.656;25.586;2023-08-20T03:28:24;10.20;;;9.00;;
80567;SDS011;69922;45.656;25.586;2023-08-20T03:29:28;11.00;;;8.40;;
80567;SDS011;69922;45.656;25.586;2023-08-20T03:30:32;12.10;;;8.80;;
80567;SDS011;69922;45.656;25.586;2023-08-20T03:31:37;11.10;;;8.50;;
80567;SDS011;69922;45.656;25.586;2023-08-20T03:32:40;12.80;;;9.20;;
80567;SDS011;69922;45.656;25.586;2023-08-20T03:33:44;13.60;;;9.00;;
80567;SDS011;69922;45.656;25.586;2023-08-20T03:34:48;12.80;;;9.10;;
80567;SDS011;69922;45.656;25.586;2023-08-20T03:35:51;10.20;;;8.80;;
80567;SDS011;69922;45.656;25.586;2023-08-20T03:36:54;12.70;;;9.90;;
80567;SDS011;69922;45.656;25.586;2023-08-20T03:37:58;12.40;;;9.60;;
80567;SDS011;69922;45.656;25.586;2023-08-20T03:39:02;12.70;;;8.70;;
80567;SDS011;69922;45.656;25.586;2023-08-20T03:40:08;10.80;;;8.90;;
80567;SDS011;69922;45.656;25.586;2023-08-20T03:41:13;11.70;;;9.00;;
80567;SDS011;69922;45.656;25.586;2023-08-20T03:42:17;12.00;;;8.60;;
80567;SDS011;69922;45.656;25.586;2023-08-20T03:43:20;11.50;;;9.10;;
80567;SDS011;69922;45.656;25.586;2023-08-20T03:44:24;12.90;;;8.40;;
80567;SDS011;69922;45.656;25.586;2023-08-20T03:45:28;13.00;;;7.80;;
80567;SDS011;69922;45.656;25.586;2023-08-20T03:46:33;17.90;;;8.70;;
80567;SDS011;69922;45.656;25.586;2023-08-20T03:47:36;13.70;;;9.10;;
80567;SDS011;69922;45.656;25.586;2023-08-20T03:48:40;9.90;;;8.30;;
80567;SDS011;69922;45.656;25.586;2023-08-20T03:49:43;11.60;;;8.90;;
80567;SDS011;69922;45.656;25.586;2023-08-20T03:50:47;12.30;;;9.00;;
80567;SDS011;69922;45.656;25.586;2023-08-20T03:51:51;10.40;;;8.60;;
80567;SDS011;69922;45.656;25.586;2023-08-20T03:52:54;10.00;;;8.70;;
80567;SDS011;69922;45.656;25.586;2023-08-20T03:53:57;13.10;;;9.00;;
80567;SDS011;69922;45.656;25.586;2023-08-20T03:55:01;11.60;;;9.10;;
80567;SDS011;69922;45.656;25.586;2023-08-20T03:56:06;10.10;;;8.10;;
80567;SDS011;69922;45.656;25.586;2023-08-20T03:57:09;12.60;;;10.00;;
80567;SDS011;69922;45.656;25.586;2023-08-20T03:58:13;11.80;;;8.60;;
80567;SDS011;69922;45.656;25.586;2023-08-20T03:59:16;12.10;;;9.20;;
80567;SDS011;69922;45.656;25.586;2023-08-20T04:00:20;12.00;;;9.10;;
80567;SDS011;69922;45.656;25.586;2023-08-20T04:01:24;10.60;;;8.60;;
80567;SDS011;69922;45.656;25.586;2023-08-20T04:02:27;13.10;;;9.80;;
80567;SDS011;69922;45.656;25.586;2023-08-20T04:03:31;11.70;;;9.00;;
80567;SDS011;69922;45.656;25.586;2023-08-20T04:04:35;11.00;;;9.00;;
80567;SDS011;69922;45.656;25.586;2023-08-20T04:05:41;13.10;;;9.60;;
80567;SDS011;69922;45.656;25.586;2023-08-20T04:06:44;14.70;;;9.90;;
80567;SDS011;69922;45.656;25.586;2023-08-20T04:07:47;11.60;;;9.50;;
80567;SDS011;69922;45.656;25.586;2023-08-20T04:08:51;10.60;;;9.00;;
80567;SDS011;69922;45.656;25.586;2023-08-20T04:09:56;11.20;;;9.30;;
80567;SDS011;69922;45.656;25.586;2023-08-20T04:10:59;10.90;;;8.70;;
80567;SDS011;69922;45.656;25.586;2023-08-20T04:12:05;14.50;;;8.80;;
80567;SDS011;69922;45.656;25.586;2023-08-20T04:13:10;13.40;;;9.20;;
80567;SDS011;69922;45.656;25.586;2023-08-20T04:14:14;11.50;;;9.80;;
80567;SDS011;69922;45.656;25.586;2023-08-20T04:15:17;12.90;;;8.60;;
80567;SDS011;69922;45.656;25.586;2023-08-20T04:16:21;12.20;;;8.40;;
80567;SDS011;69922;45.656;25.586;2023-08-20T04:17:24;12.90;;;9.20;;
80567;SDS011;69922;45.656;25.586;2023-08-20T04:18:28;11.80;;;9.60;;
80567;SDS011;69922;45.656;25.586;2023-08-20T04:19:32;14.90;;;9.60;;
80567;SDS011;69922;45.656;25.586;2023-08-20T04:20:35;12.10;;;9.20;;
80567;SDS011;69922;45.656;25.586;2023-08-20T04:21:39;11.40;;;9.00;;
80567;SDS011;69922;45.656;25.586;2023-08-20T04:22:43;12.10;;;9.30;;
80567;SDS011;69922;45.656;25.586;2023-08-20T04:23:47;11.60;;;9.20;;
80567;SDS011;69922;45.656;25.586;2023-08-20T04:24:50;14.80;;;9.40;;
80567;SDS011;69922;45.656;25.586;2023-08-20T04:25:54;13.60;;;9.30;;
80567;SDS011;69922;45.656;25.586;2023-08-20T04:26:57;12.70;;;9.20;;
80567;SDS011;69922;45.656;25.586;2023-08-20T04:28:00;11.30;;;9.00;;
80567;SDS011;69922;45.656;25.586;2023-08-20T04:29:04;11.80;;;9.00;;
80567;SDS011;69922;45.656;25.586;2023-08-20T04:30:08;10.40;;;8.60;;
80567;SDS011;69922;45.656;25.586;2023-08-20T04:31:14;11.50;;;9.00;;
80567;SDS011;69922;45.656;25.586;2023-08-20T04:32:18;13.00;;;9.10;;
80567;SDS011;69922;45.656;25.586;2023-08-20T04:33:24;11.00;;;9.00;;
80567;SDS011;69922;45.656;25.586;2023-08-20T04:34:28;12.50;;;9.10;;
80567;SDS011;69922;45.656;25.586;2023-08-20T04:35:32;16.00;;;9.00;;
80567;SDS011;69922;45.656;25.586;2023-08-20T04:36:35;13.40;;;10.30;;
80567;SDS011;69922;45.656;25.586;2023-08-20T04:37:39;11.80;;;8.90;;
80567;SDS011;69922;45.656;25.586;2023-08-20T04:38:42;11.40;;;9.20;;
80567;SDS011;69922;45.656;25.586;2023-08-20T04:39:45;11.80;;;9.80;;
80567;SDS011;69922;45.656;25.586;2023-08-20T04:40:48;12.10;;;8.50;;
80567;SDS011;69922;45.656;25.586;2023-08-20T04:41:52;11.90;;;9.70;;
80567;SDS011;69922;45.656;25.586;2023-08-20T04:43:00;15.30;;;9.10;;
80567;SDS011;69922;45.656;25.586;2023-08-20T04:44:04;11.50;;;10.30;;
80567;SDS011;69922;45.656;25.586;2023-08-20T04:45:09;14.70;;;8.90;;
80567;SDS011;69922;45.656;25.586;2023-08-20T04:46:13;13.00;;;9.80;;
80567;SDS011;69922;45.656;25.586;2023-08-20T04:47:17;14.00;;;8.80;;
80567;SDS011;69922;45.656;25.586;2023-08-20T04:48:21;12.90;;;10.10;;
80567;SDS011;69922;45.656;25.586;2023-08-20T04:49:25;13.10;;;9.50;;
80567;SDS011;69922;45.656;25.586;2023-08-20T04:50:30;12.80;;;9.80;;
80567;SDS011;69922;45.656;25.586;2023-08-20T04:51:33;13.30;;;9.90;;
80567;SDS011;69922;45.656;25.586;2023-08-20T04:52:37;12.10;;;10.00;;
80567;SDS011;69922;45.656;25.586;2023-08-20T04:53:41;15.50;;;10.50;;
80567;SDS011;69922;45.656;25.586;2023-08-20T04:54:45;13.80;;;10.70;;
80567;SDS011;69922;45.656;25.586;2023-08-20T04:55:48;13.20;;;10.00;;
80567;SDS011;69922;45.656;25.586;2023-08-20T04:56:52;12.10;;;9.70;;
80567;SDS011;69922;45.656;25.586;2023-08-20T04:57:56;14.30;;;9.90;;
80567;SDS011;69922;45.656;25.586;2023-08-20T04:58:59;12.50;;;9.10;;
80567;SDS011;69922;45.656;25.586;2023-08-20T05:00:04;13.80;;;10.30;;
80567;SDS011;69922;45.656;25.586;2023-08-20T05:01:12;11.50;;;8.10;;
80567;SDS011;69922;45.656;25.586;2023-08-20T05:02:16;14.00;;;9.20;;
80567;SDS011;69922;45.656;25.586;2023-08-20T05:03:19;12.60;;;9.30;;
80567;SDS011;69922;45.656;25.586;2023-08-20T05:04:24;9.20;;;8.00;;
80567;SDS011;69922;45.656;25.586;2023-08-20T05:05:27;13.10;;;8.40;;
80567;SDS011;69922;45.656;25.586;2023-08-20T05:06:30;12.90;;;9.30;;
80567;SDS011;69922;45.656;25.586;2023-08-20T05:07:34;9.90;;;8.50;;
80567;SDS011;69922;45.656;25.586;2023-08-20T05:08:37;12.90;;;9.30;;
80567;SDS011;69922;45.656;25.586;2023-08-20T05:09:40;11.70;;;9.30;;
80567;SDS011;69922;45.656;25.586;2023-08-20T05:10:43;11.60;;;9.70;;
80567;SDS011;69922;45.656;25.586;2023-08-20T05:11:47;13.40;;;10.00;;
80567;SDS011;69922;45.656;25.586;2023-08-20T05:12:51;14.30;;;9.50;;
80567;SDS011;69922;45.656;25.586;2023-08-20T05:13:55;10.80;;;9.40;;
80567;SDS011;69922;45.656;25.586;2023-08-20T05:14:58;12.00;;;10.10;;
80567;SDS011;69922;45.656;25.586;2023-08-20T05:16:04;11.70;;;8.90;;
80567;SDS011;69922;45.656;25.586;2023-08-20T05:17:07;12.70;;;9.30;;
80567;SDS011;69922;45.656;25.586;2023-08-20T05:18:10;12.30;;;9.90;;
80567;SDS011;69922;45.656;25.586;2023-08-20T05:19:14;11.40;;;9.80;;
80567;SDS011;69922;45.656;25.586;2023-08-20T05:20:17;11.10;;;8.90;;
80567;SDS011;69922;45.656;25.586;2023-08-20T05:21:21;12.50;;;9.40;;
80567;SDS011;69922;45.656;25.586;2023-08-20T05:22:28;13.60;;;9.90;;
80567;SDS011;69922;45.656;25.586;2023-08-20T05:23:31;15.50;;;10.70;;
80567;SDS011;69922;45.656;25.586;2023-08-20T05:24:34;12.60;;;9.00;;
80567;SDS011;69922;45.656;25.586;2023-08-20T05:25:38;13.90;;;10.30;;
80567;SDS011;69922;45.656;25.586;2023-08-20T05:26:42;11.90;;;10.10;;
80567;SDS011;69922;45.656;25.586;2023-08-20T05:27:46;12.10;;;9.70;;
80567;SDS011;69922;45.656;25.586;2023-08-20T05:28:49;12.50;;;9.90;;
80567;SDS011;69922;45.656;25.586;2023-08-20T05:29:53;14.00;;;9.70;;
80567;SDS011;69922;45.656;25.586;2023-08-20T05:30:57;11.10;;;9.00;;
80567;SDS011;69922;45.656;25.586;2023-08-20T05:32:00;15.70;;;10.70;;
80567;SDS011;69922;45.656;25.586;2023-08-20T05:33:05;12.30;;;10.60;;
80567;SDS011;69922;45.656;25.586;2023-08-20T05:34:08;12.00;;;9.90;;
80567;SDS011;69922;45.656;25.586;2023-08-20T05:35:12;11.30;;;9.10;;
80567;SDS011;69922;45.656;25.586;2023-08-20T05:36:15;13.40;;;11.20;;
80567;SDS011;69922;45.656;25.586;2023-08-20T05:37:18;10.90;;;9.00;;
80567;SDS011;69922;45.656;25.586;2023-08-20T05:38:22;12.60;;;10.00;;
80567;SDS011;69922;45.656;25.586;2023-08-20T05:39:26;14.20;;;9.60;;
80567;SDS011;69922;45.656;25.586;2023-08-20T05:40:29;14.80;;;10.20;;
80567;SDS011;69922;45.656;25.586;2023-08-20T05:41:33;13.00;;;8.60;;
80567;SDS011;69922;45.656;25.586;2023-08-20T05:42:36;11.90;;;9.50;;
80567;SDS011;69922;45.656;25.586;2023-08-20T05:43:40;14.50;;;10.30;;
80567;SDS011;69922;45.656;25.586;2023-08-20T05:44:44;11.00;;;9.50;;
80567;SDS011;69922;45.656;25.586;2023-08-20T05:45:47;14.30;;;10.10;;
80567;SDS011;69922;45.656;25.586;2023-08-20T05:46:50;13.10;;;10.50;;
80567;SDS011;69922;45.656;25.586;2023-08-20T05:47:54;15.30;;;11.10;;
80567;SDS011;69922;45.656;25.586;2023-08-20T05:48:58;12.80;;;10.20;;
80567;SDS011;69922;45.656;25.586;2023-08-20T05:50:02;13.00;;;10.20;;
80567;SDS011;69922;45.656;25.586;2023-08-20T05:51:08;12.00;;;10.00;;
80567;SDS011;69922;45.656;25.586;2023-08-20T05:52:12;12.50;;;10.30;;
80567;SDS011;69922;45.656;25.586;2023-08-20T05:53:15;14.30;;;10.30;;
80567;SDS011;69922;45.656;25.586;2023-08-20T05:54:19;13.40;;;11.20;;
80567;SDS011;69922;45.656;25.586;2023-08-20T05:55:23;12.10;;;9.90;;
80567;SDS011;69922;45.656;25.586;2023-08-20T05:56:27;12.60;;;10.00;;
80567;SDS011;69922;45.656;25.586;2023-08-20T05:57:31;13.20;;;10.90;;
80567;SDS011;69922;45.656;25.586;2023-08-20T05:58:35;12.80;;;9.90;;
80567;SDS011;69922;45.656;25.586;2023-08-20T05:59:38;14.20;;;9.40;;
80567;SDS011;69922;45.656;25.586;2023-08-20T06:00:42;13.50;;;10.30;;
80567;SDS011;69922;45.656;25.586;2023-08-20T06:01:45;13.20;;;10.00;;
80567;SDS011;69922;45.656;25.586;2023-08-20T06:02:49;13.30;;;11.30;;
80567;SDS011;69922;45.656;25.586;2023-08-20T06:03:54;13.60;;;10.00;;
80567;SDS011;69922;45.656;25.586;2023-08-20T06:04:58;11.40;;;9.50;;
80567;SDS011;69922;45.656;25.586;2023-08-20T06:06:02;14.40;;;10.10;;
80567;SDS011;69922;45.656;25.586;2023-08-20T06:07:12;13.70;;;9.80;;
80567;SDS011;69922;45.656;25.586;2023-08-20T06:08:15;12.30;;;10.70;;
80567;SDS011;69922;45.656;25.586;2023-08-20T06:09:18;15.20;;;9.70;;
80567;SDS011;69922;45.656;25.586;2023-08-20T06:10:22;14.10;;;10.00;;
80567;SDS011;69922;45.656;25.586;2023-08-20T06:11:25;16.40;;;11.00;;
80567;SDS011;69922;45.656;25.586;2023-08-20T06:12:29;13.30;;;9.70;;
80567;SDS011;69922;45.656;25.586;2023-08-20T06:13:33;13.90;;;9.70;;
80567;SDS011;69922;45.656;25.586;2023-08-20T06:14:37;11.90;;;10.00;;
80567;SDS011;69922;45.656;25.586;2023-08-20T06:15:40;16.50;;;10.30;;
80567;SDS011;69922;45.656;25.586;2023-08-20T06:16:43;16.60;;;10.30;;
80567;SDS011;69922;45.656;25.586;2023-08-20T06:17:47;13.50;;;9.70;;